Time;durP1;ratioP1;P1;durP2;ratioP2;P2;SDS_P1;SDS_P2;PMS_P1;PMS_P2;Temp;Humidity;BMP_temperature;BMP_pressure;BME280_temperature;BME280_humidity;BME280_pressure;Samples;Min_cycle;Max_cycle;Signal;HPM_P1;HPM_P2
2022/09/12 00:00:45;;;;;;;12.53;6.07;;;10.70;65.60;;;;;;4954164;28;46530;-64
2022/09/12 00:03:11;;;;;;;8.30;6.17;;;10.70;65.30;;;;;;4953997;28;46306;-65
2022/09/12 00:05:45;;;;;;;6.30;5.20;;;10.60;64.30;;;;;;4954671;28;46450;-65
2022/09/12 00:08:11;;;;;;;8.30;5.50;;;10.60;65.20;;;;;;4952330;28;47237;-65
2022/09/12 00:10:40;;;;;;;8.63;5.80;;;10.60;65.40;;;;;;4957493;28;45976;-65
2022/09/12 00:13:06;;;;;;;9.07;5.73;;;10.60;65.60;;;;;;4952734;28;46425;-65
2022/09/12 00:15:36;;;;;;;7.80;5.73;;;10.70;64.30;;;;;;4958218;28;46523;-65
2022/09/12 00:18:01;;;;;;;9.57;5.73;;;10.70;65.10;;;;;;4952380;28;48094;-65
2022/09/12 00:20:27;;;;;;;9.00;5.70;;;10.70;65.10;;;;;;4955776;28;46476;-65
2022/09/12 00:22:53;;;;;;;8.20;5.63;;;10.70;65.20;;;;;;4953630;28;46376;-65
2022/09/12 00:25:18;;;;;;;8.80;5.30;;;10.70;64.10;;;;;;4954160;28;46433;-65
2022/09/12 00:27:44;;;;;;;7.73;5.07;;;10.70;65.30;;;;;;4953458;28;47144;-65
2022/09/12 00:30:10;;;;;;;7.63;5.13;;;10.60;65.20;;;;;;4951369;28;46558;-65
2022/09/12 00:32:35;;;;;;;10.47;5.20;;;10.60;65.40;;;;;;4954156;28;46123;-65
2022/09/12 00:35:02;;;;;;;8.73;5.07;;;10.60;65.10;;;;;;4950762;28;46416;-65
2022/09/12 00:37:27;;;;;;;15.87;6.23;;;10.60;65.30;;;;;;4949641;28;47159;-65
2022/09/12 00:39:53;;;;;;;10.63;6.03;;;10.60;65.30;;;;;;4948718;28;46386;-65
2022/09/12 00:42:19;;;;;;;8.77;6.13;;;10.60;65.40;;;;;;4956191;28;46516;-65
2022/09/12 00:44:48;;;;;;;8.03;5.40;;;10.60;65.40;;;;;;4955131;28;45848;-65
2022/09/12 00:47:26;;;;;;;10.10;5.40;;;10.60;65.40;;;;;;4950936;28;46530;-64
2022/09/12 00:49:58;;;;;;;8.37;5.10;;;10.60;65.60;;;;;;4950467;28;46425;-64
2022/09/12 00:52:33;;;;;;;10.63;5.13;;;10.50;65.80;;;;;;4956248;28;46724;-65
2022/09/12 00:55:10;;;;;;;10.00;6.03;;;10.50;65.90;;;;;;4950444;28;46335;-65
2022/09/12 00:57:54;;;;;;;7.97;5.00;;;10.40;66.00;;;;;;4952631;28;46654;-65
2022/09/12 01:00:23;;;;;;;6.77;5.17;;;10.40;66.00;;;;;;4955845;28;46391;-66
2022/09/12 01:02:53;;;;;;;7.80;5.10;;;10.40;65.80;;;;;;4954705;28;46376;-65
2022/09/12 01:05:21;;;;;;;7.33;4.93;;;10.40;64.90;;;;;;4953318;28;46404;-65
2022/09/12 01:07:48;;;;;;;14.20;5.13;;;10.40;66.00;;;;;;4955041;28;46599;-65
2022/09/12 01:10:15;;;;;;;6.90;4.97;;;10.40;65.90;;;;;;4954489;28;45973;-65
2022/09/12 01:12:42;;;;;;;13.37;4.63;;;10.40;65.80;;;;;;4958818;28;46397;-65
2022/09/12 01:15:08;;;;;;;9.87;6.23;;;10.30;65.70;;;;;;4957419;28;46357;-65
2022/09/12 01:18:09;;;;;;;7.40;5.03;;;10.30;65.50;;;;;;4952238;28;46367;-64
2022/09/12 01:20:53;;;;;;;17.70;5.10;;;10.30;66.60;;;;;;4953714;28;46471;-65
2022/09/12 01:23:43;;;;;;;8.03;4.87;;;10.40;65.60;;;;;;4958413;28;46486;-66
2022/09/12 01:26:51;;;;;;;7.60;5.00;;;10.40;64.70;;;;;;4957090;28;46099;-65
2022/09/12 01:30:12;;;;;;;8.50;4.47;;;10.40;65.80;;;;;;4960891;28;46707;-64
2022/09/12 01:33:11;;;;;;;7.53;4.10;;;10.40;65.80;;;;;;4935086;28;46571;-65
2022/09/12 01:36:23;;;;;;;5.80;3.87;;;10.30;64.80;;;;;;4953199;28;46486;-63
2022/09/12 01:38:58;;;;;;;6.73;3.03;;;10.30;65.90;;;;;;4959473;28;45781;-65
2022/09/12 01:41:32;;;;;;;4.60;3.13;;;10.10;66.00;;;;;;4952458;28;47986;-65
2022/09/12 01:44:17;;;;;;;5.57;3.70;;;10.00;65.40;;;;;;4953970;28;46362;-65
2022/09/12 01:46:53;;;;;;;10.27;4.50;;;10.00;66.30;;;;;;4954215;28;46333;-65
2022/09/12 01:49:31;;;;;;;6.10;4.10;;;10.00;66.40;;;;;;4956482;28;46372;-65
2022/09/12 01:52:03;;;;;;;7.43;4.43;;;9.90;67.50;;;;;;4952102;28;46748;-65
2022/09/12 01:54:33;;;;;;;9.43;4.27;;;9.80;66.50;;;;;;4956855;28;45780;-65
2022/09/12 01:57:07;;;;;;;6.33;3.97;;;9.80;67.60;;;;;;4959505;28;46452;-65
2022/09/12 01:59:38;;;;;;;6.40;4.03;;;9.80;67.60;;;;;;4956768;28;46710;-66
2022/09/12 02:02:22;;;;;;;8.60;4.67;;;9.80;67.50;;;;;;4956347;28;46702;-66
2022/09/12 02:05:01;;;;;;;6.00;4.10;;;9.80;67.50;;;;;;4956949;28;45868;-64
2022/09/12 02:07:44;;;;;;;7.80;3.77;;;9.70;67.60;;;;;;4958150;28;46576;-65
2022/09/12 02:10:15;;;;;;;6.03;4.00;;;9.70;67.50;;;;;;4959789;28;46613;-66
2022/09/12 02:12:56;;;;;;;4.73;3.90;;;9.70;67.60;;;;;;4955529;28;46667;-65
2022/09/12 02:15:29;;;;;;;8.37;4.80;;;9.70;66.40;;;;;;4958125;28;46359;-65
2022/09/12 02:17:59;;;;;;;9.33;4.60;;;9.70;67.40;;;;;;4956412;28;47029;-64
2022/09/12 02:20:29;;;;;;;7.30;4.60;;;9.70;67.20;;;;;;4958888;28;46517;-64
2022/09/12 02:22:56;;;;;;;9.77;4.43;;;9.70;67.30;;;;;;4958639;28;46536;-65
2022/09/12 02:25:24;;;;;;;7.03;4.50;;;9.70;66.10;;;;;;4957772;28;46329;-65
2022/09/12 02:27:56;;;;;;;7.83;4.70;;;9.70;67.20;;;;;;4959943;28;46356;-65
2022/09/12 02:30:22;;;;;;;7.40;4.90;;;9.80;67.10;;;;;;4971291;28;46735;-65
2022/09/12 02:33:25;;;;;;;8.77;4.47;;;9.80;67.30;;;;;;4958234;28;46959;-65
2022/09/12 02:36:00;;;;;;;6.20;4.53;;;9.80;66.50;;;;;;4953358;28;46604;-65
2022/09/12 02:38:34;;;;;;;9.40;4.40;;;9.80;67.50;;;;;;4954001;28;46449;-65
2022/09/12 02:41:00;;;;;;;5.40;3.80;;;9.70;67.60;;;;;;4956596;28;46602;-65
2022/09/12 02:43:25;;;;;;;6.50;4.13;;;9.70;67.70;;;;;;4954404;28;46463;-65
2022/09/12 02:45:51;;;;;;;7.60;3.87;;;9.70;66.70;;;;;;4952957;28;46370;-65
2022/09/12 02:48:30;;;;;;;6.00;4.27;;;9.70;67.70;;;;;;4954191;28;46483;-65
2022/09/12 02:50:56;;;;;;;8.47;4.67;;;9.70;67.50;;;;;;4958713;28;45812;-65
2022/09/12 02:53:22;;;;;;;8.00;4.63;;;9.70;67.30;;;;;;4955899;28;46897;-65
2022/09/12 02:55:48;;;;;;;6.63;4.40;;;9.70;66.10;;;;;;4972600;28;46632;-65
2022/09/12 02:58:18;;;;;;;6.37;4.53;;;9.80;67.00;;;;;;4952979;28;46352;-66
2022/09/12 03:01:04;;;;;;;7.83;4.40;;;9.80;66.90;;;;;;4953168;28;46431;-65
2022/09/12 03:03:48;;;;;;;6.97;4.33;;;9.80;67.00;;;;;;4957529;28;46408;-65
2022/09/12 03:06:36;;;;;;;5.60;3.97;;;9.80;66.90;;;;;;4954946;28;46366;-65
2022/09/12 03:09:23;;;;;;;5.87;3.83;;;9.80;67.10;;;;;;4952334;28;46293;-65
2022/09/12 03:12:11;;;;;;;6.70;4.50;;;9.80;67.40;;;;;;4955918;28;46568;-64
2022/09/12 03:15:00;;;;;;;15.57;4.30;;;9.70;66.40;;;;;;4955866;28;48112;-64
2022/09/12 03:17:46;;;;;;;6.57;4.40;;;9.70;67.50;;;;;;4955394;28;46401;-65
2022/09/12 03:20:20;;;;;;;7.83;4.50;;;9.70;67.50;;;;;;4952763;28;46561;-65
2022/09/12 03:22:54;;;;;;;6.60;4.23;;;9.60;67.70;;;;;;4955104;28;46198;-65
2022/09/12 03:25:20;;;;;;;10.93;4.47;;;9.60;67.90;;;;;;4954694;28;47044;-66
2022/09/12 03:28:11;;;;;;;6.13;3.40;;;9.60;67.90;;;;;;4950407;28;47450;-65
2022/09/12 03:30:42;;;;;;;5.23;3.63;;;9.60;68.10;;;;;;4952565;28;46393;-65
2022/09/12 03:33:14;;;;;;;6.83;3.40;;;9.50;68.20;;;;;;4952872;28;46435;-65
2022/09/12 03:35:40;;;;;;;6.17;3.67;;;9.50;67.30;;;;;;4955569;28;46387;-65
2022/09/12 03:38:07;;;;;;;5.60;3.70;;;9.50;68.20;;;;;;4955852;28;45857;-65
2022/09/12 03:40:34;;;;;;;9.50;3.60;;;9.40;68.30;;;;;;4956801;28;46445;-65
2022/09/12 03:43:00;;;;;;;8.60;3.73;;;9.40;68.40;;;;;;4954218;28;46306;-65
2022/09/12 03:45:25;;;;;;;6.70;3.67;;;9.40;67.40;;;;;;4955132;28;47084;-66
2022/09/12 03:47:51;;;;;;;6.23;3.70;;;9.30;68.40;;;;;;4950175;28;46782;-65
2022/09/12 03:50:17;;;;;;;6.90;4.10;;;9.30;68.50;;;;;;4949685;28;46524;-65
2022/09/12 03:52:43;;;;;;;6.87;3.33;;;9.20;68.50;;;;;;4955130;28;45873;-65
2022/09/12 03:55:08;;;;;;;6.27;2.80;;;9.20;68.50;;;;;;4953904;28;46450;-65
2022/09/12 03:57:34;;;;;;;3.53;2.30;;;9.30;68.50;;;;;;4956644;28;46381;-65
2022/09/12 04:00:00;;;;;;;3.27;2.43;;;9.20;68.40;;;;;;4951703;28;46380;-64
2022/09/12 04:02:27;;;;;;;4.70;2.77;;;9.20;68.60;;;;;;4957084;28;46385;-65
2022/09/12 04:04:52;;;;;;;3.73;2.60;;;9.10;68.70;;;;;;4951770;28;47177;-65
2022/09/12 04:07:18;;;;;;;5.67;2.93;;;9.10;68.60;;;;;;4953484;28;45776;-65
2022/09/12 04:09:43;;;;;;;4.63;2.53;;;9.10;68.80;;;;;;4956894;28;46301;-65
2022/09/12 04:12:09;;;;;;;5.30;2.60;;;9.10;68.70;;;;;;4954343;28;46418;-65
2022/09/12 04:14:35;;;;;;;6.87;2.90;;;9.10;68.70;;;;;;4955920;28;47014;-66
2022/09/12 04:17:00;;;;;;;5.97;2.90;;;9.10;68.70;;;;;;4954618;28;46384;-64
2022/09/12 04:19:26;;;;;;;7.13;2.83;;;9.10;68.80;;;;;;4952211;28;46486;-65
2022/09/12 04:21:53;;;;;;;6.73;3.10;;;9.10;68.80;;;;;;4952879;28;46480;-65
2022/09/12 04:24:19;;;;;;;5.23;2.87;;;9.10;68.70;;;;;;4947867;28;46353;-65
2022/09/12 04:26:44;;;;;;;6.73;3.77;;;9.00;68.70;;;;;;4959022;28;46503;-64
2022/09/12 04:29:11;;;;;;;5.43;3.10;;;9.00;68.80;;;;;;4954808;28;46600;-64
2022/09/12 04:31:37;;;;;;;5.33;3.40;;;9.00;68.80;;;;;;4950346;28;45924;-65
2022/09/12 04:34:04;;;;;;;8.50;3.70;;;9.10;67.90;;;;;;4955111;28;47301;-65
2022/09/12 04:36:32;;;;;;;7.33;3.27;;;9.00;68.80;;;;;;4956580;28;46490;-65
2022/09/12 04:38:59;;;;;;;5.40;3.03;;;9.00;68.80;;;;;;4948041;28;46335;-65
2022/09/12 04:41:27;;;;;;;3.70;2.40;;;9.00;69.30;;;;;;4954311;28;46500;-66
2022/09/12 04:44:00;;;;;;;5.03;2.53;;;8.80;68.20;;;;;;4950950;28;47667;-65
2022/09/12 04:46:26;;;;;;;6.33;2.17;;;8.80;69.10;;;;;;4954361;28;46453;-65
2022/09/12 04:48:51;;;;;;;3.90;2.70;;;8.70;69.00;;;;;;4953100;28;46538;-65
2022/09/12 04:51:20;;;;;;;4.70;2.70;;;8.70;69.10;;;;;;4949640;28;46528;-66
2022/09/12 04:53:50;;;;;;;5.10;2.73;;;8.80;68.00;;;;;;4960226;28;46428;-67
2022/09/12 04:56:17;;;;;;;6.60;2.90;;;8.80;68.90;;;;;;4961967;28;46340;-66
2022/09/12 04:58:43;;;;;;;3.87;3.17;;;8.90;68.90;;;;;;4960594;28;45925;-66
2022/09/12 05:01:12;;;;;;;4.50;2.43;;;8.90;68.70;;;;;;4962610;28;46371;-65
2022/09/12 05:03:38;;;;;;;5.50;3.03;;;8.60;68.60;;;;;;4962349;28;46971;-65
2022/09/12 05:06:06;;;;;;;4.30;2.77;;;8.80;67.80;;;;;;4963332;28;46357;-66
2022/09/12 05:08:34;;;;;;;5.43;2.73;;;8.80;68.80;;;;;;4961138;28;46352;-67
2022/09/12 05:11:04;;;;;;;7.80;3.27;;;8.90;68.80;;;;;;4963250;28;46364;-65
2022/09/12 05:13:30;;;;;;;6.20;2.80;;;8.90;68.50;;;;;;4962691;28;46416;-65
2022/09/12 05:15:57;;;;;;;5.50;2.50;;;8.90;67.30;;;;;;4962283;28;46533;-66
2022/09/12 05:18:25;;;;;;;4.57;3.00;;;8.80;68.40;;;;;;4962602;28;46425;-66
2022/09/12 05:20:51;;;;;;;4.67;2.53;;;8.90;67.30;;;;;;4960511;28;46368;-65
2022/09/12 05:23:17;;;;;;;4.90;3.13;;;8.90;68.10;;;;;;4962550;28;46419;-65
2022/09/12 05:25:50;;;;;;;3.77;2.40;;;9.10;66.80;;;;;;4961056;28;45860;-66
2022/09/12 05:28:15;;;;;;;6.93;3.17;;;9.20;68.50;;;;;;4960754;28;46576;-65
2022/09/12 05:30:41;;;;;;;2.50;1.67;;;9.60;66.90;;;;;;4962466;28;46407;-66
2022/09/12 05:33:06;;;;;;;7.00;2.50;;;10.20;67.10;;;;;;4963165;28;46281;-65
2022/09/12 05:35:32;;;;;;;8.37;3.00;;;10.90;67.50;;;;;;4961782;28;46452;-66
2022/09/12 05:37:57;;;;;;;3.00;2.70;;;11.40;68.80;;;;;;4961130;28;46430;-66
2022/09/12 05:40:23;;;;;;;2.40;2.10;;;11.90;68.00;;;;;;4961642;28;46579;-66
2022/09/12 05:42:49;;;;;;;2.17;1.63;;;12.20;67.40;;;;;;4962325;28;46674;-67
2022/09/12 05:45:15;;;;;;;2.30;1.70;;;12.60;66.90;;;;;;4962249;28;46661;-66
2022/09/12 05:47:42;;;;;;;2.83;2.10;;;13.00;66.80;;;;;;4961912;28;46472;-67
2022/09/12 05:50:09;;;;;;;2.73;1.70;;;13.30;65.20;;;;;;4960975;28;46444;-66
2022/09/12 05:52:36;;;;;;;4.73;1.50;;;13.50;64.10;;;;;;4961140;28;47021;-65
2022/09/12 05:55:03;;;;;;;4.53;1.60;;;13.60;62.70;;;;;;4961139;28;46863;-67
2022/09/12 05:57:28;;;;;;;3.20;2.00;;;13.40;61.80;;;;;;4959287;28;46231;-66
2022/09/12 05:59:54;;;;;;;2.73;1.90;;;13.00;61.80;;;;;;4961609;28;46816;-67
2022/09/12 06:02:20;;;;;;;8.83;2.27;;;12.80;62.00;;;;;;4961563;28;46595;-67
2022/09/12 06:04:45;;;;;;;3.00;2.10;;;12.60;62.30;;;;;;4960563;28;46565;-66
2022/09/12 06:07:13;;;;;;;4.30;1.70;;;12.60;63.20;;;;;;4960743;28;45873;-68
2022/09/12 06:09:39;;;;;;;7.03;1.73;;;12.70;63.90;;;;;;4961341;28;46867;-66
2022/09/12 06:12:05;;;;;;;2.77;1.67;;;13.30;62.40;;;;;;4960596;28;46275;-65
2022/09/12 06:14:31;;;;;;;8.67;2.43;;;13.80;59.40;;;;;;4959377;28;46746;-66
2022/09/12 06:16:57;;;;;;;7.80;2.07;;;13.70;58.90;;;;;;4960006;28;46408;-66
2022/09/12 06:19:24;;;;;;;5.73;2.03;;;13.40;59.20;;;;;;4961741;28;46543;-66
2022/09/12 06:21:52;;;;;;;3.90;2.30;;;13.20;59.40;;;;;;4961409;28;47861;-67
2022/09/12 06:24:19;;;;;;;3.93;2.20;;;13.20;60.00;;;;;;4960532;28;46488;-66
2022/09/12 06:26:46;;;;;;;6.43;2.27;;;13.20;59.90;;;;;;4960542;28;46449;-66
2022/09/12 06:29:12;;;;;;;4.83;2.30;;;13.30;59.80;;;;;;4960485;28;46491;-66
2022/09/12 06:31:40;;;;;;;2.73;1.97;;;13.30;59.50;;;;;;4959744;28;46673;-67
2022/09/12 06:34:09;;;;;;;3.20;2.00;;;13.40;59.20;;;;;;4961477;28;46488;-66
2022/09/12 06:36:40;;;;;;;3.00;1.67;;;13.50;59.00;;;;;;4960495;28;46470;-68
2022/09/12 06:39:11;;;;;;;6.03;1.70;;;13.60;58.80;;;;;;4960868;28;46591;-65
2022/09/12 06:41:37;;;;;;;9.07;2.30;;;13.70;58.90;;;;;;4960463;28;46639;-67
2022/09/12 06:44:03;;;;;;;3.80;1.97;;;13.80;57.80;;;;;;4961376;28;46447;-66
2022/09/12 06:46:32;;;;;;;2.87;1.90;;;13.80;58.60;;;;;;4960230;28;45918;-66
2022/09/12 06:48:59;;;;;;;5.07;2.50;;;14.00;59.90;;;;;;4960306;28;46415;-66
2022/09/12 06:51:26;;;;;;;3.97;2.20;;;14.10;58.50;;;;;;4960434;28;46938;-66
2022/09/12 06:53:54;;;;;;;3.40;2.20;;;15.90;59.20;;;;;;4960316;28;46394;-67
2022/09/12 06:56:22;;;;;;;4.00;1.90;;;14.20;58.60;;;;;;4961156;28;46474;-66
2022/09/12 06:58:49;;;;;;;2.80;1.73;;;14.40;58.60;;;;;;4959905;28;46603;-66
2022/09/12 07:01:20;;;;;;;2.90;1.83;;;14.50;58.30;;;;;;4960079;28;47338;-67
2022/09/12 07:03:54;;;;;;;2.83;1.90;;;14.70;57.20;;;;;;4959793;28;46416;-66
2022/09/12 07:06:24;;;;;;;3.67;2.10;;;14.70;58.30;;;;;;4959581;28;46423;-65
2022/09/12 07:08:50;;;;;;;2.70;1.93;;;14.80;58.10;;;;;;4974078;28;46782;-65
2022/09/12 07:11:17;;;;;;;3.97;1.80;;;15.00;57.90;;;;;;4958539;28;46416;-66
2022/09/12 07:13:44;;;;;;;2.60;1.90;;;15.10;57.70;;;;;;4959428;28;46718;-66
2022/09/12 07:16:11;;;;;;;9.50;2.00;;;15.10;56.60;;;;;;4973949;28;46415;-66
2022/09/12 07:18:38;;;;;;;4.00;1.80;;;15.30;57.40;;;;;;4960069;28;46452;-66
2022/09/12 07:21:09;;;;;;;3.90;1.87;;;15.50;57.10;;;;;;4960504;28;47326;-65
2022/09/12 07:23:34;;;;;;;3.20;2.13;;;15.70;56.90;;;;;;4975063;28;46397;-66
2022/09/12 07:26:00;;;;;;;3.70;2.33;;;15.80;55.90;;;;;;4959797;28;46492;-64
2022/09/12 07:28:29;;;;;;;3.23;1.77;;;15.90;57.10;;;;;;4958831;28;45977;-67
2022/09/12 07:30:55;;;;;;;5.97;2.20;;;15.90;57.10;;;;;;4960676;28;46384;-66
2022/09/12 07:33:23;;;;;;;3.97;2.10;;;16.10;56.60;;;;;;4959402;28;46695;-66
2022/09/12 07:35:48;;;;;;;6.40;2.07;;;16.20;55.10;;;;;;4960086;28;46428;-67
2022/09/12 07:38:22;;;;;;;6.73;3.23;;;16.10;54.90;;;;;;5081214;27;46763;-66
2022/09/12 07:40:48;;;;;;;3.33;2.00;;;16.20;56.20;;;;;;5084101;27;45897;-67
2022/09/12 07:43:14;;;;;;;5.63;2.10;;;16.30;57.20;;;;;;5074865;27;46373;-66
2022/09/12 07:45:41;;;;;;;3.03;1.77;;;16.50;54.30;;;;;;5065376;27;46354;-65
2022/09/12 07:48:07;;;;;;;2.67;1.67;;;16.70;55.10;;;;;;5061454;27;46347;-64
2022/09/12 07:50:33;;;;;;;3.77;2.37;;;16.80;54.70;;;;;;5066776;27;46267;-65
2022/09/12 07:52:58;;;;;;;3.87;1.87;;;16.90;54.40;;;;;;5064491;27;45857;-66
2022/09/12 07:55:24;;;;;;;3.00;1.83;;;17.00;53.00;;;;;;5081205;27;46727;-62
2022/09/12 07:57:54;;;;;;;3.23;1.90;;;17.00;54.20;;;;;;5080994;27;46711;-63
2022/09/12 08:00:20;;;;;;;2.90;1.90;;;17.00;54.20;;;;;;5079284;27;46668;-62
2022/09/12 08:02:53;;;;;;;6.10;2.03;;;17.20;53.90;;;;;;5080986;27;47490;-64
2022/09/12 08:05:19;;;;;;;2.77;1.67;;;17.30;53.70;;;;;;5080645;27;46469;-64
2022/09/12 08:07:45;;;;;;;3.73;1.60;;;17.40;53.50;;;;;;5081465;27;47243;-64
2022/09/12 08:10:11;;;;;;;3.30;1.70;;;17.60;52.90;;;;;;5082876;27;46396;-63
2022/09/12 08:12:37;;;;;;;3.33;1.87;;;17.80;52.40;;;;;;5085862;27;46349;-64
2022/09/12 08:15:02;;;;;;;4.53;1.70;;;17.80;52.00;;;;;;5082108;27;46595;-63
2022/09/12 08:17:28;;;;;;;4.20;1.40;;;17.90;51.90;;;;;;5081579;27;46925;-64
2022/09/12 08:19:55;;;;;;;5.30;1.63;;;18.00;51.40;;;;;;5080038;27;46622;-62
2022/09/12 08:22:21;;;;;;;3.00;1.60;;;18.10;51.30;;;;;;5078663;27;46841;-63
2022/09/12 08:24:47;;;;;;;6.60;1.70;;;18.20;51.00;;;;;;5079036;27;46546;-62
2022/09/12 08:27:13;;;;;;;3.43;1.50;;;18.30;50.50;;;;;;5079350;27;47283;-63
2022/09/12 08:29:39;;;;;;;2.90;1.70;;;18.40;50.20;;;;;;5075858;27;46542;-63
2022/09/12 08:32:05;;;;;;;3.50;2.13;;;18.40;50.00;;;;;;5078814;27;46641;-62
2022/09/12 08:34:31;;;;;;;4.43;1.80;;;18.60;48.60;;;;;;5080579;27;46475;-63
2022/09/12 08:36:56;;;;;;;3.57;2.00;;;18.60;49.50;;;;;;5080180;27;46416;-64
2022/09/12 08:39:23;;;;;;;2.47;1.57;;;18.80;48.80;;;;;;5074170;27;46394;-64
2022/09/12 08:41:59;;;;;;;3.50;2.13;;;18.80;48.50;;;;;;5078689;27;46780;-63
2022/09/12 08:44:52;;;;;;;4.90;2.83;;;18.80;47.70;;;;;;5078357;27;45888;-63
2022/09/12 08:47:32;;;;;;;4.17;2.50;;;18.70;47.10;;;;;;5080681;27;46378;-64
2022/09/12 08:50:09;;;;;;;4.80;2.33;;;18.60;46.80;;;;;;5065616;28;46471;-64
2022/09/12 08:53:01;;;;;;;4.33;2.73;;;18.70;46.50;;;;;;5067422;28;46423;-64
2022/09/12 08:55:41;;;;;;;4.30;3.00;;;18.90;46.60;;;;;;5068202;28;46408;-63
2022/09/12 08:58:21;;;;;;;9.77;2.57;;;19.00;46.10;;;;;;5066974;28;47302;-64
2022/09/12 09:01:03;;;;;;;6.50;2.67;;;19.10;45.50;;;;;;5063279;28;46476;-63
2022/09/12 09:04:00;;;;;;;3.23;2.40;;;19.10;45.60;;;;;;5065923;28;46415;-63
2022/09/12 09:06:46;;;;;;;3.90;2.60;;;19.20;45.30;;;;;;5067919;28;46704;-63
2022/09/12 09:09:14;;;;;;;3.77;2.37;;;19.30;45.20;;;;;;5066712;28;46743;-63
2022/09/12 09:12:03;;;;;;;3.80;2.57;;;19.30;45.40;;;;;;5065483;28;46442;-63
2022/09/12 09:15:00;;;;;;;4.10;2.73;;;19.50;41.80;;;;;;5060757;28;46463;-63
2022/09/12 09:17:31;;;;;;;7.73;2.57;;;19.50;42.50;;;;;;5065861;28;46354;-64
2022/09/12 09:20:21;;;;;;;3.60;2.27;;;19.50;42.10;;;;;;5060325;28;47028;-64
2022/09/12 09:22:57;;;;;;;3.80;2.40;;;19.60;41.70;;;;;;5064569;28;46519;-62
2022/09/12 09:25:28;;;;;;;5.13;2.40;;;19.50;40.00;;;;;;5064524;28;46433;-63
2022/09/12 09:28:10;;;;;;;4.63;2.17;;;19.60;41.00;;;;;;5067252;28;46641;-63
2022/09/12 09:30:36;;;;;;;5.83;2.70;;;19.70;40.50;;;;;;5066738;28;47068;-63
2022/09/12 09:33:04;;;;;;;3.70;2.50;;;19.40;39.40;;;;;;5066998;28;46495;-63
2022/09/12 09:35:51;;;;;;;3.53;2.27;;;19.80;38.80;;;;;;5064343;27;46413;-63
2022/09/12 09:38:33;;;;;;;4.73;2.77;;;19.90;39.70;;;;;;5062340;28;46200;-63
2022/09/12 09:41:25;;;;;;;2.47;1.70;;;20.00;39.40;;;;;;5066328;28;46582;-62
2022/09/12 09:43:51;;;;;;;7.50;2.50;;;20.00;37.40;;;;;;5065179;28;46409;-64
2022/09/12 09:46:17;;;;;;;5.67;2.73;;;20.00;38.40;;;;;;5067683;28;45962;-64
2022/09/12 09:48:47;;;;;;;3.10;1.80;;;20.20;38.60;;;;;;5064205;28;46436;-63
2022/09/12 09:51:18;;;;;;;3.03;2.03;;;20.20;38.60;;;;;;5063063;28;46421;-64
2022/09/12 09:54:00;;;;;;;3.40;2.10;;;20.30;37.60;;;;;;5065208;28;45864;-63
2022/09/12 09:56:39;;;;;;;4.27;2.03;;;20.30;37.30;;;;;;5062951;28;47298;-63
2022/09/12 09:59:16;;;;;;;3.67;1.97;;;20.30;37.50;;;;;;5065511;28;46465;-63
2022/09/12 10:01:55;;;;;;;4.27;2.70;;;20.20;37.90;;;;;;5066015;28;46459;-63
2022/09/12 10:04:24;;;;;;;3.13;1.90;;;20.20;37.70;;;;;;5061561;28;46461;-63
2022/09/12 10:07:01;;;;;;;3.10;1.90;;;20.40;37.20;;;;;;5066088;28;46465;-63
2022/09/12 10:09:32;;;;;;;5.50;2.33;;;20.50;36.80;;;;;;5065032;28;46686;-64
2022/09/12 10:12:00;;;;;;;4.20;2.20;;;20.60;36.80;;;;;;5063230;28;48067;-63
2022/09/12 10:14:31;;;;;;;3.47;1.77;;;20.60;36.90;;;;;;5061014;27;46468;-63
2022/09/12 10:16:57;;;;;;;3.53;1.63;;;20.60;37.20;;;;;;5063608;28;45845;-63
2022/09/12 10:19:38;;;;;;;5.80;2.40;;;20.60;36.70;;;;;;5064264;28;46691;-63
2022/09/12 10:22:05;;;;;;;3.53;1.60;;;20.60;36.10;;;;;;5063371;28;46609;-64
2022/09/12 10:24:45;;;;;;;7.07;2.47;;;20.50;36.90;;;;;;5066984;28;45818;-63
2022/09/12 10:27:11;;;;;;;3.47;1.93;;;20.60;36.60;;;;;;5065797;28;46844;-64
2022/09/12 10:29:52;;;;;;;2.57;1.60;;;20.70;36.70;;;;;;5066401;27;46431;-65
2022/09/12 10:32:23;;;;;;;5.50;2.53;;;20.80;36.70;;;;;;5061414;28;46497;-64
2022/09/12 10:34:53;;;;;;;4.03;2.20;;;20.80;35.90;;;;;;5063278;28;45877;-64
2022/09/12 10:37:34;;;;;;;6.30;2.50;;;20.70;36.30;;;;;;5063577;28;46480;-64
2022/09/12 10:40:03;;;;;;;3.43;2.30;;;20.60;35.40;;;;;;5064743;28;46451;-64
2022/09/12 10:42:46;;;;;;;4.03;2.70;;;20.60;35.80;;;;;;5064508;28;46495;-64
2022/09/12 10:45:21;;;;;;;4.67;2.33;;;20.80;35.50;;;;;;5064830;28;46369;-64
2022/09/12 10:47:48;;;;;;;4.10;2.20;;;20.70;35.70;;;;;;5063764;28;46487;-64
2022/09/12 10:50:34;;;;;;;4.10;2.57;;;20.80;35.50;;;;;;5059849;27;46417;-63
2022/09/12 10:53:13;;;;;;;4.70;2.97;;;20.90;34.90;;;;;;5064994;28;46652;-63
2022/09/12 10:55:45;;;;;;;3.07;2.20;;;20.90;34.90;;;;;;5062132;28;46505;-63
2022/09/12 10:58:27;;;;;;;3.40;2.40;;;21.00;35.00;;;;;;5067287;28;46459;-63
2022/09/12 11:01:01;;;;;;;3.40;2.10;;;21.00;35.00;;;;;;5061806;28;46408;-64
2022/09/12 11:03:49;;;;;;;3.67;2.30;;;21.00;34.20;;;;;;5063663;28;46673;-62
2022/09/12 11:06:19;;;;;;;3.50;1.97;;;21.10;32.60;;;;;;5061546;28;46497;-63
2022/09/12 11:09:03;;;;;;;3.83;2.03;;;21.20;33.50;;;;;;5064790;28;46378;-63
2022/09/12 11:11:49;;;;;;;3.27;2.17;;;21.30;33.40;;;;;;5062838;27;46590;-63
2022/09/12 11:14:49;;;;;;;3.57;2.30;;;21.30;31.90;;;;;;5064254;28;47102;-63
2022/09/12 11:17:27;;;;;;;4.83;2.30;;;21.20;31.70;;;;;;5061327;28;46480;-63
2022/09/12 11:20:18;;;;;;;6.27;2.27;;;21.20;31.60;;;;;;5062048;28;46529;-64
2022/09/12 11:23:06;;;;;;;3.70;1.97;;;21.20;31.30;;;;;;5065231;28;46457;-64
2022/09/12 11:25:49;;;;;;;4.57;2.10;;;21.20;31.70;;;;;;5060465;28;47136;-63
2022/09/12 11:28:24;;;;;;;5.80;2.30;;;21.20;30.70;;;;;;5064630;28;45927;-63
2022/09/12 11:31:07;;;;;;;4.77;2.00;;;21.30;31.10;;;;;;5062873;28;46404;-64
2022/09/12 11:33:46;;;;;;;3.90;2.40;;;21.40;30.90;;;;;;5065893;28;46491;-64
2022/09/12 11:36:36;;;;;;;3.83;2.20;;;21.70;29.80;;;;;;5062985;28;46502;-64
2022/09/12 11:39:02;;;;;;;3.27;1.97;;;21.80;30.70;;;;;;5065058;28;46487;-63
2022/09/12 11:41:36;;;;;;;4.33;2.30;;;21.80;30.50;;;;;;5064538;28;46478;-63
2022/09/12 11:44:19;;;;;;;3.40;2.33;;;21.80;29.80;;;;;;5063988;28;46521;-62
2022/09/12 11:46:45;;;;;;;5.00;2.33;;;21.80;30.30;;;;;;5064963;28;46499;-64
2022/09/12 11:49:14;;;;;;;3.00;1.90;;;21.80;30.00;;;;;;5060139;28;46543;-63
2022/09/12 11:51:43;;;;;;;5.13;1.87;;;21.70;29.80;;;;;;5066844;28;46433;-63
2022/09/12 11:54:27;;;;;;;3.57;1.93;;;22.10;28.60;;;;;;5060214;28;45921;-63
2022/09/12 11:57:16;;;;;;;7.93;2.17;;;22.10;29.20;;;;;;5063944;28;46879;-64
2022/09/12 11:59:44;;;;;;;3.03;1.90;;;22.10;28.60;;;;;;5062505;28;46474;-63
2022/09/12 12:02:13;;;;;;;2.80;1.80;;;22.00;27.80;;;;;;5065064;28;46471;-65
2022/09/12 12:05:00;;;;;;;4.53;2.17;;;22.00;28.60;;;;;;5067504;28;46797;-63
2022/09/12 12:07:38;;;;;;;3.67;1.83;;;22.00;28.30;;;;;;5066246;27;47179;-63
2022/09/12 12:10:04;;;;;;;3.40;1.90;;;22.10;28.00;;;;;;5066902;28;46472;-63
2022/09/12 12:12:31;;;;;;;6.03;2.57;;;22.10;28.10;;;;;;5067337;28;47071;-65
2022/09/12 12:14:58;;;;;;;3.13;2.00;;;22.10;27.80;;;;;;5066972;28;46339;-64
2022/09/12 12:17:25;;;;;;;4.80;1.80;;;22.10;27.60;;;;;;5065188;28;48069;-64
2022/09/12 12:20:05;;;;;;;3.87;2.03;;;22.10;27.80;;;;;;5066363;27;46391;-64
2022/09/12 12:22:30;;;;;;;5.37;2.40;;;22.10;26.40;;;;;;5067234;27;45907;-66
2022/09/12 12:25:00;;;;;;;4.47;1.90;;;22.10;25.50;;;;;;5068722;27;46413;-65
2022/09/12 12:27:57;;;;;;;6.43;1.93;;;22.10;26.40;;;;;;5069043;28;46930;-64
2022/09/12 12:30:29;;;;;;;3.77;1.83;;;22.10;26.10;;;;;;5069823;28;46410;-64
2022/09/12 12:33:11;;;;;;;3.35;2.00;;;22.00;26.10;;;;;;5070310;28;46402;-66
2022/09/12 12:35:46;;;;;;;7.00;2.30;;;22.10;24.30;;;;;;5068451;28;46526;-65
2022/09/12 12:38:29;;;;;;;3.80;2.47;;;22.10;25.50;;;;;;5068750;27;46248;-66
2022/09/12 12:41:17;;;;;;;3.07;1.93;;;22.20;25.50;;;;;;5069347;28;46431;-65
2022/09/12 12:43:45;;;;;;;4.10;2.20;;;22.30;25.20;;;;;;5070855;27;46465;-66
2022/09/12 12:46:15;;;;;;;6.53;2.00;;;22.60;24.00;;;;;;5071203;27;46623;-65
2022/09/12 12:49:08;;;;;;;3.47;1.93;;;22.70;24.80;;;;;;5068990;28;46473;-65
2022/09/12 12:51:54;;;;;;;5.00;2.50;;;22.80;24.40;;;;;;5070948;28;46018;-64
2022/09/12 12:54:40;;;;;;;5.50;2.47;;;22.70;23.50;;;;;;5069807;27;46816;-65
2022/09/12 12:57:12;;;;;;;5.60;2.30;;;22.70;24.40;;;;;;5070880;28;47164;-64
2022/09/12 12:59:49;;;;;;;3.87;2.40;;;22.60;24.30;;;;;;5069979;27;46876;-65
2022/09/12 13:02:25;;;;;;;9.30;2.17;;;22.70;24.30;;;;;;5069662;28;46482;-65
2022/09/12 13:04:52;;;;;;;4.30;2.00;;;22.70;23.50;;;;;;5071953;28;46471;-64
2022/09/12 13:07:32;;;;;;;4.83;2.27;;;22.70;24.40;;;;;;5066811;28;46488;-64
2022/09/12 13:09:59;;;;;;;5.60;2.23;;;22.80;24.40;;;;;;5071571;28;48585;-65
2022/09/12 13:12:35;;;;;;;5.47;2.07;;;23.00;24.50;;;;;;5069216;28;46539;-65
2022/09/12 13:15:35;;;;;;;3.80;2.20;;;22.90;23.60;;;;;;5067477;27;46675;-65
2022/09/12 13:18:26;;;;;;;4.90;2.30;;;22.90;24.50;;;;;;5070045;28;46635;-64